createdAt,value
2019-05-14T00:01:08.475Z,62.93
2019-05-14T00:03:41.359Z,62.96
2019-05-14T00:06:13.765Z,63.38
2019-05-14T00:08:46.016Z,63.29
2019-05-14T00:11:18.289Z,63.42
2019-05-14T00:13:52.041Z,63.51
2019-05-14T00:16:24.570Z,63.38
2019-05-14T00:18:56.903Z,63.60
2019-05-14T00:21:31.500Z,63.66
2019-05-14T00:24:03.150Z,63.74
2019-05-14T00:26:35.392Z,63.87
2019-05-14T00:29:11.162Z,64.05
2019-05-14T00:31:42.842Z,64.12
2019-05-14T00:34:16.271Z,64.28
2019-05-14T00:36:48.312Z,64.23
2019-05-14T00:39:21.351Z,64.61
2019-05-14T00:41:53.826Z,64.64
2019-05-14T00:44:26.066Z,64.71
2019-05-14T00:46:58.279Z,64.91
2019-05-14T00:49:31.698Z,65.03
2019-05-14T00:52:04.012Z,65.11
2019-05-14T00:54:36.208Z,65.27
2019-05-14T00:57:08.420Z,65.26
2019-05-14T00:59:41.769Z,65.50
2019-05-14T01:02:14.266Z,65.43
2019-05-14T01:04:46.513Z,65.58
2019-05-14T01:07:21.003Z,65.76
2019-05-14T01:09:53.696Z,65.71
2019-05-14T01:12:26.972Z,65.93
2019-05-14T01:15:09.641Z,66.17
2019-05-14T01:17:33.142Z,66.31
2019-05-14T01:20:05.393Z,66.39
2019-05-14T01:22:37.676Z,66.42
2019-05-14T01:25:11.916Z,66.69
2019-05-14T01:27:45.973Z,66.84
2019-05-14T01:30:18.200Z,66.62
2019-05-14T01:32:51.126Z,66.65
2019-05-14T01:35:25.610Z,66.75
2019-05-14T01:37:57.899Z,66.94
2019-05-14T01:40:31.510Z,67.21
2019-05-14T01:43:04.032Z,67.19
2019-05-14T01:45:36.244Z,67.44
2019-05-14T01:48:08.440Z,67.52
2019-05-14T01:50:41.409Z,67.75
2019-05-14T01:53:14.158Z,67.79
2019-05-14T01:55:46.403Z,67.99
2019-05-14T01:58:18.693Z,68.15
2019-05-14T02:00:52.394Z,68.20
2019-05-14T02:03:24.826Z,68.24
2019-05-14T02:05:58.180Z,68.46
2019-05-14T02:08:32.313Z,68.52
2019-05-14T02:11:04.363Z,68.59
2019-05-14T02:13:36.758Z,68.75
2019-05-14T02:16:12.768Z,68.96
2019-05-14T02:18:43.114Z,69.07
2019-05-14T02:21:15.314Z,69.10
2019-05-14T02:23:47.534Z,69.01
2019-05-14T02:26:21.942Z,69.20
2019-05-14T02:28:53.695Z,69.30
2019-05-14T02:31:29.024Z,69.47
2019-05-14T02:33:59.939Z,69.42
2019-05-14T02:36:32.189Z,69.67
2019-05-14T02:39:04.421Z,69.66
2019-05-14T02:41:39.121Z,69.59
2019-05-14T02:44:12.276Z,69.64
2019-05-14T02:46:46.722Z,69.82
2019-05-14T02:49:19.602Z,69.84
2019-05-14T02:51:51.960Z,69.81
2019-05-14T02:54:24.212Z,69.80
2019-05-14T02:56:59.627Z,69.86
2019-05-14T02:59:30.871Z,69.95
2019-05-14T03:02:03.211Z,70.09
2019-05-14T03:04:35.483Z,70.12
2019-05-14T03:07:11.012Z,70.13
2019-05-14T03:09:43.900Z,69.92
2019-05-14T03:12:19.213Z,69.78
2019-05-14T03:14:50.323Z,69.65
2019-05-14T03:17:24.806Z,69.66
2019-05-14T03:19:59.956Z,69.85
2019-05-14T03:22:43.202Z,70.19
2019-05-14T03:25:04.907Z,70.20
2019-05-14T03:27:40.295Z,70.31
2019-05-14T03:30:13.206Z,70.34
2019-05-14T03:32:45.039Z,70.28
2019-05-14T03:35:22.577Z,70.53
2019-05-14T03:37:51.216Z,70.50
2019-05-14T03:40:23.431Z,70.55
2019-05-14T03:42:55.811Z,70.77
2019-05-14T03:45:30.050Z,70.76
2019-05-14T03:48:02.162Z,70.79
2019-05-14T03:50:34.397Z,70.78
2019-05-14T03:53:09.826Z,70.88
2019-05-14T03:55:41.006Z,71.05
2019-05-14T03:58:13.301Z,71.11
2019-05-14T04:00:45.503Z,71.15
2019-05-14T04:03:19.819Z,71.28
2019-05-14T04:05:51.677Z,71.19
2019-05-14T04:08:23.933Z,71.08
2019-05-14T04:10:59.001Z,71.21
2019-05-14T04:13:30.519Z,71.12
2019-05-14T04:16:02.756Z,71.27
2019-05-14T04:18:35.013Z,70.98
2019-05-14T04:21:10.131Z,70.69
2019-05-14T04:23:41.167Z,70.59
2019-05-14T04:26:13.357Z,70.21
2019-05-14T04:28:45.576Z,70.10
2019-05-14T04:31:19.136Z,70.01
2019-05-14T04:33:51.664Z,69.67
2019-05-14T04:36:23.895Z,69.70
2019-05-14T04:38:56.128Z,69.72
2019-05-14T04:41:29.847Z,69.18
2019-05-14T04:44:02.420Z,69.17
2019-05-14T04:46:34.652Z,69.15
2019-05-14T04:49:09.660Z,69.09
2019-05-14T04:51:41.290Z,69.12
2019-05-14T04:54:15.474Z,68.90
2019-05-14T04:56:50.862Z,68.81
2019-05-14T04:59:23.027Z,68.79
2019-05-14T05:01:55.254Z,68.59
2019-05-14T05:04:29.820Z,68.54
2019-05-14T05:07:01.473Z,68.37
2019-05-14T05:09:33.933Z,67.89
2019-05-14T05:12:08.862Z,67.90
2019-05-14T05:14:40.171Z,67.31
2019-05-14T05:17:12.519Z,67.26
2019-05-14T05:19:45.936Z,67.29
2019-05-14T05:22:19.599Z,67.35
2019-05-14T05:24:52.085Z,67.11
2019-05-14T05:27:28.640Z,67.32
2019-05-14T05:30:00.494Z,66.98
2019-05-14T05:32:32.684Z,67.01
2019-05-14T05:35:04.918Z,66.70
2019-05-14T05:37:38.442Z,67.14
2019-05-14T05:40:10.956Z,66.59
2019-05-14T05:42:43.386Z,66.45
2019-05-14T05:45:15.719Z,66.30
2019-05-14T05:47:57.764Z,66.86
2019-05-14T05:50:22.575Z,66.74
2019-05-14T05:52:54.834Z,66.43
2019-05-14T05:55:28.768Z,66.42
2019-05-14T05:58:01.284Z,66.01
2019-05-14T06:00:33.717Z,65.81
2019-05-14T06:03:10.236Z,65.27
2019-05-14T06:05:40.034Z,64.43
2019-05-14T06:08:12.295Z,63.88
2019-05-14T06:10:44.641Z,63.51
2019-05-14T06:13:18.298Z,63.03
2019-05-14T06:15:52.244Z,63.25
2019-05-14T06:18:25.145Z,63.33
2019-05-14T06:20:58.510Z,63.50
2019-05-14T06:23:32.076Z,63.63
2019-05-14T06:26:04.320Z,63.08
2019-05-14T06:28:40.918Z,62.99
2019-05-14T06:31:11.053Z,62.91
2019-05-14T06:33:43.298Z,62.15
2019-05-14T06:36:15.550Z,62.31
2019-05-14T06:38:49.440Z,62.34
2019-05-14T06:41:24.110Z,62.38
2019-05-14T06:43:58.904Z,62.81
2019-05-14T06:46:30.308Z,62.39
2019-05-14T06:49:02.633Z,62.36
2019-05-14T06:51:39.302Z,61.54
2019-05-14T06:54:10.834Z,60.58
2019-05-14T06:56:43.360Z,60.98
2019-05-14T06:59:18.015Z,60.84
2019-05-14T07:01:49.666Z,60.35
2019-05-14T07:04:21.900Z,60.75
2019-05-14T07:06:54.290Z,61.01
2019-05-14T07:09:29.066Z,61.21
2019-05-14T07:12:01.558Z,59.49
2019-05-14T07:14:34.132Z,58.78
2019-05-14T07:17:08.853Z,58.10
2019-05-14T07:19:40.307Z,58.13
2019-05-14T07:22:12.541Z,57.33
2019-05-14T07:24:44.832Z,57.20
2019-05-14T07:27:19.280Z,56.47
2019-05-14T07:29:51.175Z,56.08
2019-05-14T07:32:23.393Z,55.69
2019-05-14T07:34:55.683Z,55.40
2019-05-14T07:37:28.562Z,54.27
2019-05-14T07:40:01.118Z,53.24
2019-05-14T07:42:33.390Z,52.73
2019-05-14T07:45:05.425Z,53.08
2019-05-14T07:47:39.062Z,51.46
2019-05-14T07:50:11.334Z,50.83
2019-05-14T07:52:45.732Z,51.59
2019-05-14T07:55:18.531Z,51.31
2019-05-14T07:57:50.930Z,51.20
2019-05-14T08:00:23.189Z,50.75
2019-05-14T08:02:55.401Z,51.37
2019-05-14T08:05:28.756Z,51.66
2019-05-14T08:08:01.162Z,51.93
2019-05-14T08:10:33.418Z,52.67
2019-05-14T08:13:05.724Z,52.17
2019-05-14T08:15:38.683Z,51.57
2019-05-14T08:18:11.080Z,50.88
2019-05-14T08:20:43.399Z,51.35
2019-05-14T08:23:15.434Z,50.78
2019-05-14T08:25:48.245Z,50.44
2019-05-14T08:28:21.304Z,48.83
2019-05-14T08:30:53.701Z,47.64
2019-05-14T08:33:25.937Z,47.58
2019-05-14T08:35:58.372Z,46.47
2019-05-14T08:38:31.863Z,46.73
2019-05-14T08:41:04.224Z,47.29
2019-05-14T08:43:39.335Z,47.11
2019-05-14T08:46:10.554Z,46.93
2019-05-14T08:48:42.893Z,47.05
2019-05-14T08:51:15.142Z,46.93
2019-05-14T08:53:50.333Z,46.34
2019-05-14T08:56:21.489Z,47.08
2019-05-14T08:58:53.736Z,47.26
2019-05-14T09:01:25.956Z,47.08
2019-05-14T09:03:59.565Z,46.50
2019-05-14T09:06:32.204Z,46.86
2019-05-14T09:09:04.524Z,47.44
2019-05-14T09:11:44.619Z,47.29
2019-05-14T09:14:11.538Z,46.97
2019-05-14T09:16:47.776Z,46.74
2019-05-14T09:19:19.301Z,46.91
2019-05-14T09:21:52.023Z,47.04
2019-05-14T09:24:24.256Z,46.57
2019-05-14T09:26:59.000Z,45.81
2019-05-14T09:29:30.844Z,46.23
2019-05-14T09:32:03.053Z,45.92
2019-05-14T09:34:35.197Z,45.09
2019-05-14T09:37:08.623Z,44.68
2019-05-14T09:39:41.210Z,44.44
2019-05-14T09:42:13.674Z,44.49
2019-05-14T09:44:45.911Z,44.04
2019-05-14T09:47:18.953Z,43.63
2019-05-14T09:49:51.488Z,43.61
2019-05-14T09:52:24.689Z,43.29
2019-05-14T09:54:58.592Z,42.72
2019-05-14T09:57:30.886Z,43.20
2019-05-14T10:00:03.178Z,42.95
2019-05-14T10:02:39.359Z,42.99
2019-05-14T10:05:10.630Z,42.96
2019-05-14T10:07:42.928Z,42.93
2019-05-14T10:10:15.267Z,42.20
2019-05-14T10:12:54.105Z,41.61
2019-05-14T10:15:21.711Z,42.43
2019-05-14T10:17:53.938Z,41.73
2019-05-14T10:20:40.445Z,42.09
2019-05-14T10:23:00.196Z,41.97
2019-05-14T10:25:32.503Z,41.44
2019-05-14T10:28:04.711Z,41.69
2019-05-14T10:30:37.149Z,41.66
2019-05-14T10:33:14.783Z,41.12
2019-05-14T10:35:43.371Z,38.74
2019-05-14T10:38:15.683Z,40.27
2019-05-14T10:40:47.852Z,40.17
2019-05-14T10:43:20.334Z,38.79
2019-05-14T10:45:52.696Z,39.24
2019-05-14T10:48:26.265Z,39.13
2019-05-14T10:51:03.268Z,38.76
2019-05-14T10:53:32.659Z,39.30
2019-05-14T10:56:05.109Z,39.06
2019-05-14T10:58:37.328Z,39.08
2019-05-14T11:01:11.415Z,39.26
2019-05-14T11:03:43.772Z,37.84
2019-05-14T11:06:18.535Z,38.54
2019-05-14T11:08:50.423Z,39.13
2019-05-14T11:11:22.657Z,38.44
2019-05-14T11:13:54.939Z,37.75
2019-05-14T11:16:28.365Z,36.88
2019-05-14T11:19:02.037Z,38.34
2019-05-14T11:21:34.300Z,37.58
2019-05-14T11:24:09.467Z,37.55
2019-05-14T11:26:41.600Z,37.60
2019-05-14T11:29:13.806Z,37.62
2019-05-14T11:31:48.374Z,36.35
2019-05-14T11:34:20.172Z,36.97
2019-05-14T11:36:52.702Z,36.96
2019-05-14T11:39:24.942Z,35.51
2019-05-14T11:41:58.999Z,36.16
2019-05-14T11:44:31.151Z,35.38
2019-05-14T11:47:03.375Z,35.02
2019-05-14T11:49:35.422Z,32.06
2019-05-14T11:52:11.389Z,32.06
2019-05-14T11:54:41.396Z,28.08
2019-05-14T11:57:13.664Z,26.70
2019-05-14T11:59:46.967Z,23.62
2019-05-14T12:02:19.818Z,22.75
2019-05-14T12:04:52.714Z,20.62
2019-05-14T12:07:27.922Z,20.55
2019-05-14T12:10:00.445Z,20.70
2019-05-14T12:12:33.515Z,19.57
2019-05-14T12:15:08.707Z,20.15
2019-05-14T12:17:40.944Z,18.19
2019-05-14T12:20:13.971Z,17.39
2019-05-14T12:22:48.724Z,17.00
2019-05-14T12:25:21.379Z,16.74
2019-05-14T12:27:54.528Z,16.89
2019-05-14T12:30:28.690Z,17.75
2019-05-14T12:33:01.936Z,17.82
2019-05-14T12:35:34.789Z,16.74
2019-05-14T12:38:09.884Z,16.88
2019-05-14T12:40:42.221Z,15.55
2019-05-14T12:43:15.112Z,15.38
2019-05-14T12:45:48.025Z,15.27
2019-05-14T12:48:20.914Z,18.14
2019-05-14T12:50:54.032Z,16.60
2019-05-14T12:53:28.775Z,15.08
2019-05-14T12:56:02.921Z,15.99
2019-05-14T12:58:44.893Z,14.69
2019-05-14T13:01:12.808Z,13.97
2019-05-14T13:03:45.490Z,14.69
2019-05-14T13:06:19.226Z,13.48
2019-05-14T13:08:52.165Z,13.83
2019-05-14T13:11:25.070Z,14.79
2019-05-14T13:13:58.727Z,15.49
2019-05-14T13:16:31.820Z,15.74
2019-05-14T13:19:04.731Z,14.96
2019-05-14T13:21:39.000Z,14.21
2019-05-14T13:24:12.130Z,13.80
2019-05-14T13:26:49.489Z,14.47
2019-05-14T13:29:21.622Z,14.98
2019-05-14T13:31:54.565Z,14.73
2019-05-14T13:34:28.928Z,13.94
2019-05-14T13:37:01.923Z,14.86
2019-05-14T13:39:35.662Z,13.76
2019-05-14T13:42:11.720Z,13.55
2019-05-14T13:44:45.239Z,14.30
2019-05-14T13:47:18.356Z,13.93
2019-05-14T13:49:51.388Z,14.63
2019-05-14T13:52:24.201Z,13.43
2019-05-14T13:54:57.021Z,13.03
2019-05-14T13:57:29.885Z,13.46
2019-05-14T14:00:03.709Z,13.69
2019-05-14T14:02:40.174Z,15.22
2019-05-14T14:05:13.027Z,18.42
2019-05-14T14:07:48.374Z,20.74
2019-05-14T14:10:20.060Z,21.44
2019-05-14T14:12:52.315Z,23.04
2019-05-14T14:15:24.696Z,24.11
2019-05-14T14:17:56.959Z,25.57
2019-05-14T14:20:29.428Z,26.13
2019-05-14T14:23:18.797Z,25.35
2019-05-14T14:25:39.524Z,25.65
2019-05-14T14:28:11.999Z,26.62
2019-05-14T14:30:44.055Z,27.29
2019-05-14T14:33:18.513Z,27.75
2019-05-14T14:35:50.393Z,28.00
2019-05-14T14:38:22.710Z,28.13
2019-05-14T14:40:54.782Z,28.96
2019-05-14T14:43:29.448Z,28.39
2019-05-14T14:46:05.936Z,28.87
2019-05-14T14:48:35.763Z,28.99
2019-05-14T14:51:08.458Z,29.84
2019-05-14T14:53:52.526Z,31.50
2019-05-14T14:56:14.826Z,32.82
2019-05-14T14:58:49.415Z,33.85
2019-05-14T15:01:21.179Z,34.48
2019-05-14T15:03:53.638Z,34.18
2019-05-14T15:06:25.876Z,33.95
2019-05-14T15:08:58.805Z,34.52
2019-05-14T15:11:31.263Z,34.55
2019-05-14T15:14:03.791Z,34.80
2019-05-14T15:16:38.795Z,34.94
2019-05-14T15:19:09.966Z,35.11
2019-05-14T15:21:42.267Z,33.65
2019-05-14T15:24:16.016Z,34.61
2019-05-14T15:26:48.347Z,35.10
2019-05-14T15:29:20.639Z,32.82
2019-05-14T15:31:52.878Z,31.33
2019-05-14T15:34:25.319Z,31.97
2019-05-14T15:36:59.890Z,33.14
2019-05-14T15:39:31.837Z,33.19
2019-05-14T15:42:05.940Z,32.90
2019-05-14T15:44:48.885Z,32.94
2019-05-14T15:47:12.244Z,33.19
2019-05-14T15:49:45.250Z,33.27
2019-05-14T15:52:19.198Z,33.50
2019-05-14T15:54:51.994Z,33.96
2019-05-14T15:57:24.370Z,34.69
2019-05-14T16:00:00.787Z,35.04
2019-05-14T16:02:30.740Z,34.95
2019-05-14T16:05:04.371Z,33.70
2019-05-14T16:07:39.055Z,33.66
2019-05-14T16:10:10.813Z,34.20
2019-05-14T16:12:43.132Z,33.61
2019-05-14T16:15:15.398Z,32.83
2019-05-14T16:18:04.433Z,31.87
2019-05-14T16:20:21.791Z,31.75
2019-05-14T16:22:54.900Z,31.74
2019-05-14T16:25:28.647Z,32.29
2019-05-14T16:28:01.063Z,32.66
2019-05-14T16:30:33.503Z,33.44
2019-05-14T16:33:05.759Z,33.17
2019-05-14T16:35:39.297Z,33.61
2019-05-14T16:38:11.718Z,33.29
2019-05-14T16:40:44.021Z,32.31
2019-05-14T16:43:16.283Z,31.08
2019-05-14T16:45:49.235Z,30.66
2019-05-14T16:48:21.755Z,31.27
2019-05-14T16:50:54.021Z,31.14
2019-05-14T16:53:26.243Z,29.76
2019-05-14T16:55:58.557Z,28.11
2019-05-14T16:58:30.751Z,25.81
2019-05-14T17:01:03.045Z,23.99
2019-05-14T17:03:39.691Z,23.10
2019-05-14T17:06:12.652Z,20.85
2019-05-14T17:08:45.464Z,20.21
2019-05-14T17:11:18.744Z,20.21
2019-05-14T17:13:51.553Z,19.57
2019-05-14T17:16:24.444Z,20.11
2019-05-14T17:18:59.099Z,21.40
2019-05-14T17:21:31.586Z,22.48
2019-05-14T17:24:04.640Z,23.62
2019-05-14T17:26:38.095Z,23.28
2019-05-14T17:29:11.421Z,22.69
2019-05-14T17:31:43.861Z,24.03
2019-05-14T17:34:18.434Z,23.64
2019-05-14T17:36:51.054Z,22.59
2019-05-14T17:39:24.393Z,21.74
2019-05-14T17:41:58.952Z,21.23
2019-05-14T17:44:32.936Z,20.59
2019-05-14T17:47:05.209Z,23.17
2019-05-14T17:49:39.182Z,24.87
2019-05-14T17:52:11.616Z,27.11
2019-05-14T17:54:43.856Z,29.15
2019-05-14T17:57:16.133Z,30.82
2019-05-14T17:59:49.616Z,32.01
2019-05-14T18:02:22.133Z,33.11
2019-05-14T18:04:56.351Z,34.15
2019-05-14T18:07:28.689Z,34.72
2019-05-14T18:10:01.035Z,34.36
2019-05-14T18:12:33.516Z,34.81
2019-05-14T18:15:05.759Z,35.57
2019-05-14T18:17:39.233Z,35.68
2019-05-14T18:20:12.002Z,36.52
2019-05-14T18:22:44.227Z,36.77
2019-05-14T18:25:18.358Z,37.24
2019-05-14T18:27:50.755Z,37.86
2019-05-14T18:30:22.978Z,38.45
2019-05-14T18:32:55.312Z,39.86
2019-05-14T18:35:29.469Z,41.93
2019-05-14T18:38:01.570Z,44.41
2019-05-14T18:40:33.867Z,45.72
2019-05-14T18:43:08.583Z,46.80
2019-05-14T18:45:40.181Z,47.94
2019-05-14T18:48:12.298Z,48.04
2019-05-14T18:50:44.561Z,48.13
2019-05-14T18:53:18.914Z,47.99
2019-05-14T18:55:50.798Z,47.04
2019-05-14T18:58:23.071Z,46.42
2019-05-14T19:00:59.291Z,46.31
2019-05-14T19:03:39.252Z,46.31
2019-05-14T19:06:10.480Z,46.41
2019-05-14T19:08:42.738Z,46.55
2019-05-14T19:11:14.983Z,46.89
2019-05-14T19:13:48.351Z,47.11
2019-05-14T19:16:20.924Z,47.24
2019-05-14T19:18:53.318Z,47.61
2019-05-14T19:21:25.579Z,48.10
2019-05-14T19:23:58.078Z,48.36
2019-05-14T19:26:34.352Z,48.88
2019-05-14T19:29:04.239Z,49.08
2019-05-14T19:31:38.485Z,49.37
2019-05-14T19:34:10.263Z,49.62
2019-05-14T19:36:42.449Z,49.98
2019-05-14T19:39:14.752Z,50.18
2019-05-14T19:41:48.413Z,50.41
2019-05-14T19:44:20.879Z,50.70
2019-05-14T19:46:53.224Z,50.86
2019-05-14T19:49:25.530Z,51.01
2019-05-14T19:51:58.821Z,51.09
2019-05-14T19:54:31.339Z,51.40
2019-05-14T19:57:03.570Z,51.54
2019-05-14T19:59:38.187Z,51.87
2019-05-14T20:02:10.020Z,52.17
2019-05-14T20:04:42.395Z,52.39
2019-05-14T20:07:14.791Z,52.32
2019-05-14T20:09:48.290Z,52.38
2019-05-14T20:12:20.765Z,52.25
2019-05-14T20:14:52.985Z,52.31
2019-05-14T20:17:25.285Z,52.27
2019-05-14T20:19:57.939Z,52.26
2019-05-14T20:22:30.467Z,52.34
2019-05-14T20:25:02.730Z,52.45
2019-05-14T20:27:38.657Z,52.32
2019-05-14T20:30:10.460Z,52.32
2019-05-14T20:32:44.404Z,52.22
2019-05-14T20:35:30.675Z,52.28
2019-05-14T20:37:51.226Z,52.37
2019-05-14T20:40:23.496Z,52.39
2019-05-14T20:42:55.733Z,52.38
2019-05-14T20:45:28.860Z,52.46
2019-05-14T20:48:01.725Z,52.43
2019-05-14T20:50:33.936Z,52.86
2019-05-14T20:53:08.399Z,52.75
2019-05-14T20:55:40.290Z,52.85
2019-05-14T20:58:12.350Z,53.19
2019-05-14T21:00:44.625Z,53.32
2019-05-14T21:03:18.730Z,53.39
2019-05-14T21:05:50.855Z,53.48
2019-05-14T21:08:23.150Z,53.41
2019-05-14T21:10:55.441Z,53.64
2019-05-14T21:13:27.896Z,53.90
2019-05-14T21:16:00.121Z,53.97
2019-05-14T21:18:35.162Z,54.05
2019-05-14T21:21:10.873Z,54.27
2019-05-14T21:23:40.578Z,54.63
2019-05-14T21:26:12.843Z,54.90
2019-05-14T21:28:48.723Z,54.96
2019-05-14T21:31:21.245Z,55.19
2019-05-14T21:33:53.628Z,55.18
2019-05-14T21:36:28.244Z,55.53
2019-05-14T21:38:59.915Z,55.61
2019-05-14T21:41:32.165Z,55.55
2019-05-14T21:44:04.443Z,55.72
2019-05-14T21:46:39.478Z,55.89
2019-05-14T21:49:11.358Z,56.02
2019-05-14T21:51:43.838Z,56.17
2019-05-14T21:54:16.177Z,56.13
2019-05-14T21:56:49.563Z,56.21
2019-05-14T22:01:54.119Z,56.59
2019-05-14T22:04:28.859Z,56.66
2019-05-14T22:07:00.332Z,56.64
2019-05-14T22:09:32.642Z,56.67
2019-05-14T22:12:04.890Z,56.79
2019-05-14T22:14:37.972Z,56.94
2019-05-14T22:17:10.407Z,57.21
2019-05-14T22:19:42.753Z,57.41
2019-05-14T22:22:15.010Z,57.24
2019-05-14T22:24:48.932Z,57.54
2019-05-14T22:27:21.351Z,57.55
2019-05-14T22:29:53.623Z,57.72
2019-05-14T22:32:25.877Z,57.81
2019-05-14T22:34:58.629Z,58.00
2019-05-14T22:37:31.020Z,58.25
2019-05-14T22:40:03.259Z,58.43
2019-05-14T22:42:35.616Z,58.60
2019-05-14T22:45:09.358Z,58.83
2019-05-14T22:47:42.067Z,58.88
2019-05-14T22:50:14.323Z,59.28
2019-05-14T22:52:48.559Z,59.18
2019-05-14T22:55:20.548Z,59.23
2019-05-14T22:57:52.972Z,59.42
2019-05-14T23:00:25.302Z,59.60
2019-05-14T23:02:57.538Z,59.83
2019-05-14T23:05:29.820Z,59.82
2019-05-14T23:08:02.079Z,60.01
2019-05-14T23:10:34.731Z,60.21
2019-05-14T23:13:09.303Z,60.12
2019-05-14T23:15:41.159Z,60.16
2019-05-14T23:18:13.408Z,60.28
2019-05-14T23:20:45.661Z,60.31
2019-05-14T23:23:18.540Z,60.43
2019-05-14T23:25:50.903Z,60.48
2019-05-14T23:28:23.444Z,60.51
2019-05-14T23:30:55.679Z,60.70
2019-05-14T23:33:28.873Z,60.77
2019-05-14T23:36:01.298Z,60.62
2019-05-14T23:38:33.540Z,60.94
2019-05-14T23:41:08.435Z,61.08
2019-05-14T23:43:39.823Z,61.22
2019-05-14T23:46:12.448Z,61.26
2019-05-14T23:48:44.972Z,61.22
2019-05-14T23:51:18.200Z,61.19
2019-05-14T23:53:51.198Z,61.31
2019-05-14T23:56:23.452Z,61.50
2019-05-14T23:59:01.357Z,61.59
